Time;durP1;ratioP1;P1;durP2;ratioP2;P2;SDS_P1;SDS_P2;PMS_P1;PMS_P2;Temp;Humidity;BMP_temperature;BMP_pressure;BME280_temperature;BME280_humidity;BME280_pressure;Samples;Min_cycle;Max_cycle;Signal;HPM_P1;HPM_P2
2022/03/08 00:01:11;;;;;;;23.30;11.45;;;;;;;;;;6100500;23;20010;-91
2022/03/08 00:03:37;;;;;;;22.25;10.63;;;;;;;;;;6100375;23;20010;-91
2022/03/08 00:06:04;;;;;;;18.27;8.48;;;;;;;;;;6126031;23;20056;-90
2022/03/08 00:08:30;;;;;;;13.85;7.20;;;;;;;;;;6100978;23;20109;-95
2022/03/08 00:10:56;;;;;;;13.95;7.53;;;;;;;;;;6101464;23;20006;-92
2022/03/08 00:13:22;;;;;;;15.43;8.20;;;;;;;;;;6101731;23;20106;-91
2022/03/08 00:15:49;;;;;;;13.40;6.68;;;;;;;;;;6127859;23;20006;-93
2022/03/08 00:18:17;;;;;;;13.57;7.30;;;;;;;;;;6128250;23;20033;-92
2022/03/08 00:20:43;;;;;;;12.57;6.40;;;;;;;;;;6102933;23;20337;-93
2022/03/08 00:23:09;;;;;;;11.38;6.78;;;;;;;;;;6102552;23;20006;-94
2022/03/08 00:25:38;;;;;;;14.43;7.22;;;;;;;;;;6102395;23;20085;-91
2022/03/08 00:28:05;;;;;;;12.50;6.53;;;;;;;;;;6127849;23;19998;-93
2022/03/08 00:30:31;;;;;;;13.23;6.60;;;;;;;;;;6113225;23;20022;-94
2022/03/08 00:32:57;;;;;;;10.70;6.53;;;;;;;;;;6126421;23;20010;-91
2022/03/08 00:35:24;;;;;;;11.07;6.18;;;;;;;;;;6127558;23;20029;-92
2022/03/08 00:37:52;;;;;;;9.60;5.10;;;;;;;;;;6127241;23;20398;-93
2022/03/08 00:40:19;;;;;;;11.07;6.15;;;;;;;;;;6127472;23;20033;-91
2022/03/08 00:42:46;;;;;;;11.98;5.53;;;;;;;;;;6125872;23;20093;-92
2022/03/08 00:45:12;;;;;;;11.70;5.68;;;;;;;;;;6125894;23;20504;-93
2022/03/08 00:47:39;;;;;;;11.98;5.93;;;;;;;;;;6127543;23;20053;-92
2022/03/08 00:50:07;;;;;;;9.15;5.40;;;;;;;;;;6127427;23;19998;-92
2022/03/08 00:52:33;;;;;;;10.63;6.15;;;;;;;;;;6127842;23;20017;-93
2022/03/08 00:55:00;;;;;;;10.55;5.60;;;;;;;;;;6130163;23;20010;-93
2022/03/08 00:57:26;;;;;;;9.18;5.65;;;;;;;;;;6128171;23;20081;-93
2022/03/08 00:59:52;;;;;;;9.35;5.40;;;;;;;;;;6127788;23;20014;-94
2022/03/08 01:02:19;;;;;;;9.43;4.70;;;;;;;;;;6127715;23;20034;-93
2022/03/08 01:04:45;;;;;;;8.65;5.35;;;;;;;;;;6127609;23;20009;-92
2022/03/08 01:07:11;;;;;;;7.55;4.90;;;;;;;;;;6127590;23;20076;-93
2022/03/08 01:09:38;;;;;;;8.82;5.38;;;;;;;;;;6127296;23;20002;-92
2022/03/08 01:12:04;;;;;;;10.52;5.25;;;;;;;;;;6127531;23;20014;-91
2022/03/08 01:14:30;;;;;;;8.63;4.72;;;;;;;;;;6129150;23;20010;-93
2022/03/08 01:16:57;;;;;;;7.18;4.20;;;;;;;;;;6127145;23;20013;-93
2022/03/08 01:19:23;;;;;;;7.20;4.05;;;;;;;;;;6129305;23;20370;-94
2022/03/08 01:21:49;;;;;;;7.47;4.75;;;;;;;;;;6127844;23;20009;-94
2022/03/08 01:24:16;;;;;;;7.25;3.97;;;;;;;;;;6128356;23;20006;-94
2022/03/08 01:26:42;;;;;;;7.57;4.40;;;;;;;;;;6127800;23;20012;-93
2022/03/08 01:29:08;;;;;;;9.65;4.15;;;;;;;;;;6129285;23;20036;-95
2022/03/08 01:31:35;;;;;;;6.72;4.32;;;;;;;;;;6127747;23;20013;-94
2022/03/08 01:34:02;;;;;;;8.43;4.57;;;;;;;;;;6127392;23;20412;-91
2022/03/08 01:36:28;;;;;;;7.40;3.95;;;;;;;;;;6127734;23;19998;-95
2022/03/08 01:38:55;;;;;;;11.18;4.05;;;;;;;;;;6128301;23;20008;-93
2022/03/08 01:41:21;;;;;;;9.48;4.80;;;;;;;;;;6129364;23;20029;-94
2022/03/08 01:43:48;;;;;;;12.13;6.78;;;;;;;;;;6129242;23;20012;-93
2022/03/08 01:46:31;;;;;;;13.45;6.78;;;;;;;;;;6128065;23;20001;-93
2022/03/08 01:48:57;;;;;;;13.50;7.10;;;;;;;;;;6127340;23;20061;-91
2022/03/08 01:51:24;;;;;;;18.35;9.02;;;;;;;;;;6126389;23;20089;-93
2022/03/08 01:53:50;;;;;;;15.30;8.00;;;;;;;;;;6126833;23;20077;-93
2022/03/08 01:56:16;;;;;;;18.58;8.65;;;;;;;;;;6126470;23;20012;-93
2022/03/08 01:58:43;;;;;;;16.35;8.02;;;;;;;;;;6126527;23;20009;-94
2022/03/08 02:01:09;;;;;;;17.85;8.60;;;;;;;;;;6126619;23;20006;-93
2022/03/08 02:03:35;;;;;;;14.07;8.65;;;;;;;;;;6126341;23;20093;-93
2022/03/08 02:06:02;;;;;;;13.15;7.43;;;;;;;;;;6126140;23;20444;-91
2022/03/08 02:08:28;;;;;;;9.75;6.07;;;;;;;;;;6125386;23;20406;-92
2022/03/08 02:10:54;;;;;;;12.60;6.60;;;;;;;;;;6125352;23;20009;-93
2022/03/08 02:13:21;;;;;;;11.27;5.50;;;;;;;;;;6127377;23;20378;-93
2022/03/08 02:15:49;;;;;;;9.65;5.50;;;;;;;;;;6127989;23;20010;-92
2022/03/08 02:18:15;;;;;;;8.05;5.40;;;;;;;;;;6126353;23;19998;-93
2022/03/08 02:20:41;;;;;;;11.35;5.93;;;;;;;;;;6127410;23;20002;-92
2022/03/08 02:23:07;;;;;;;10.25;5.55;;;;;;;;;;6127662;23;20493;-94
2022/03/08 02:25:34;;;;;;;13.40;7.70;;;;;;;;;;6128421;23;20029;-93
2022/03/08 02:28:00;;;;;;;13.00;7.32;;;;;;;;;;6127447;23;20153;-93
2022/03/08 02:30:27;;;;;;;11.00;6.40;;;;;;;;;;6116149;23;20025;-92
2022/03/08 02:32:56;;;;;;;11.95;8.18;;;;;;;;;;6102644;23;20315;-93
2022/03/08 02:35:28;;;;;;;14.40;7.60;;;;;;;;;;6104104;23;20094;-94
2022/03/08 02:37:55;;;;;;;11.05;7.07;;;;;;;;;;6104684;23;20005;-94
2022/03/08 02:40:26;;;;;;;11.38;7.07;;;;;;;;;;6102872;23;20057;-92
2022/03/08 02:42:52;;;;;;;12.75;7.30;;;;;;;;;;6079214;23;20037;-94
2022/03/08 02:45:19;;;;;;;12.13;7.18;;;;;;;;;;6102782;23;20057;-92
2022/03/08 02:47:45;;;;;;;13.75;8.00;;;;;;;;;;6103865;23;20441;-93
2022/03/08 02:50:13;;;;;;;15.10;8.70;;;;;;;;;;6102808;23;20009;-94
2022/03/08 02:52:41;;;;;;;18.75;9.57;;;;;;;;;;6102478;23;20013;-95
2022/03/08 02:55:08;;;;;;;17.15;8.60;;;;;;;;;;6128272;23;20005;-91
2022/03/08 02:57:34;;;;;;;25.88;15.13;;;;;;;;;;6102280;23;20006;-92
2022/03/08 03:00:01;;;;;;;26.38;15.75;;;;;;;;;;6103749;23;20009;-93
2022/03/08 03:02:30;;;;;;;25.20;13.80;;;;;;;;;;6102510;23;20006;-94
2022/03/08 03:04:56;;;;;;;16.73;9.05;;;;;;;;;;6102611;23;20010;-92
2022/03/08 03:07:24;;;;;;;16.23;9.45;;;;;;;;;;6102560;23;20002;-93
2022/03/08 03:12:55;;;;;;;17.85;10.80;;;;;;;;;;6127729;23;20045;-93
2022/03/08 03:15:22;;;;;;;22.95;12.25;;;;;;;;;;6102337;23;20015;-94
2022/03/08 03:17:49;;;;;;;20.63;11.68;;;;;;;;;;6102684;23;20006;-92
2022/03/08 03:20:16;;;;;;;18.10;9.98;;;;;;;;;;6102440;23;20023;-93
2022/03/08 03:23:01;;;;;;;13.02;6.80;;;;;;;;;;6103736;23;20013;-92
2022/03/08 03:28:44;;;;;;;11.30;5.85;;;;;;;;;;6127872;23;20078;-91
2022/03/08 03:34:20;;;;;;;12.95;7.80;;;;;;;;;;6126145;23;20029;-94
2022/03/08 03:36:47;;;;;;;12.90;7.63;;;;;;;;;;6102504;23;20468;-93
2022/03/08 03:45:21;;;;;;;14.82;8.63;;;;;;;;;;6128511;23;20059;-93
2022/03/08 03:50:51;;;;;;;19.17;10.65;;;;;;;;;;6128065;23;20013;-94
2022/03/08 03:53:17;;;;;;;14.85;9.05;;;;;;;;;;6102597;23;20006;-89
2022/03/08 03:55:44;;;;;;;16.48;9.57;;;;;;;;;;6103116;23;20425;-92
2022/03/08 03:58:10;;;;;;;15.18;8.70;;;;;;;;;;6103434;23;20006;-93
2022/03/08 04:00:37;;;;;;;18.02;8.85;;;;;;;;;;6101958;23;20328;-90
2022/03/08 04:03:15;;;;;;;21.83;11.32;;;;;;;;;;6100511;23;20005;-94
2022/03/08 04:05:42;;;;;;;17.17;9.90;;;;;;;;;;6098869;23;20093;-91
2022/03/08 04:08:08;;;;;;;20.98;11.57;;;;;;;;;;6100333;23;20371;-91
2022/03/08 04:10:34;;;;;;;19.35;11.23;;;;;;;;;;6100153;23;20333;-91
2022/03/08 04:13:01;;;;;;;24.38;13.80;;;;;;;;;;6101017;23;20006;-91
2022/03/08 04:15:27;;;;;;;29.80;15.68;;;;;;;;;;6101725;23;20016;-90
2022/03/08 04:18:02;;;;;;;29.48;14.90;;;;;;;;;;6100840;23;20038;-90
2022/03/08 04:20:29;;;;;;;18.27;9.63;;;;;;;;;;6100646;23;20013;-93
2022/03/08 04:22:55;;;;;;;16.13;9.32;;;;;;;;;;6101308;23;20006;-91
2022/03/08 04:25:21;;;;;;;15.77;7.93;;;;;;;;;;6101007;23;20699;-91
2022/03/08 04:27:48;;;;;;;9.90;6.10;;;;;;;;;;6102697;23;20045;-92
2022/03/08 04:30:14;;;;;;;9.02;5.38;;;;;;;;;;6102736;23;20006;-90
2022/03/08 04:32:40;;;;;;;10.55;5.68;;;;;;;;;;6102755;23;20025;-92
2022/03/08 04:35:07;;;;;;;10.95;4.63;;;;;;;;;;6129068;23;20009;-89
2022/03/08 04:37:33;;;;;;;10.32;5.18;;;;;;;;;;6103090;23;20021;-92
2022/03/08 04:40:00;;;;;;;11.00;5.57;;;;;;;;;;6103356;23;20009;-91
2022/03/08 04:42:27;;;;;;;8.27;4.60;;;;;;;;;;6102363;23;20002;-92
2022/03/08 04:44:53;;;;;;;13.07;5.40;;;;;;;;;;6102676;23;20005;-91
2022/03/08 04:47:19;;;;;;;7.75;4.82;;;;;;;;;;6102734;23;19998;-89
2022/03/08 04:49:45;;;;;;;9.95;5.00;;;;;;;;;;6102433;23;20270;-93
2022/03/08 04:52:12;;;;;;;11.88;5.25;;;;;;;;;;6128507;23;20437;-90
2022/03/08 04:54:38;;;;;;;10.45;5.40;;;;;;;;;;6102368;23;20010;-92
2022/03/08 04:57:05;;;;;;;10.30;5.47;;;;;;;;;;6102806;23;20006;-90
2022/03/08 04:59:31;;;;;;;12.88;5.60;;;;;;;;;;6103577;23;20006;-89
2022/03/08 05:02:00;;;;;;;9.88;5.95;;;;;;;;;;6103030;23;20145;-88
2022/03/08 05:04:26;;;;;;;11.55;6.72;;;;;;;;;;6102961;23;20006;-92
2022/03/08 05:06:53;;;;;;;13.77;7.05;;;;;;;;;;6103080;23;20002;-90
2022/03/08 05:09:25;;;;;;;11.20;6.07;;;;;;;;;;6102643;23;20037;-89
2022/03/08 05:11:51;;;;;;;10.00;5.70;;;;;;;;;;6102118;23;20033;-88
2022/03/08 05:14:18;;;;;;;12.35;6.07;;;;;;;;;;6102209;23;20017;-91
2022/03/08 05:16:44;;;;;;;13.55;5.75;;;;;;;;;;6101894;23;20064;-89
2022/03/08 05:19:10;;;;;;;10.70;5.30;;;;;;;;;;6102654;23;20009;-90
2022/03/08 05:21:36;;;;;;;9.63;4.43;;;;;;;;;;6128793;23;20009;-89
2022/03/08 05:24:03;;;;;;;11.25;3.75;;;;;;;;;;6101833;23;20021;-88
2022/03/08 05:26:29;;;;;;;8.32;3.70;;;;;;;;;;6101244;23;20002;-87
2022/03/08 05:28:55;;;;;;;11.45;4.00;;;;;;;;;;6101774;23;20013;-89
2022/03/08 05:31:22;;;;;;;10.20;4.53;;;;;;;;;;6101766;23;20010;-90
2022/03/08 05:33:48;;;;;;;21.70;8.13;;;;;;;;;;6104335;23;20018;-90
2022/03/08 05:36:14;;;;;;;17.38;7.60;;;;;;;;;;6127941;23;20076;-88
2022/03/08 05:38:41;;;;;;;18.55;7.85;;;;;;;;;;6125925;23;20013;-88
2022/03/08 05:41:07;;;;;;;23.05;8.85;;;;;;;;;;6126311;23;20088;-88
2022/03/08 05:43:33;;;;;;;26.90;8.00;;;;;;;;;;6128007;23;20006;-91
2022/03/08 05:46:00;;;;;;;15.52;6.75;;;;;;;;;;6126460;23;20064;-90
2022/03/08 05:48:26;;;;;;;13.18;6.13;;;;;;;;;;6126359;23;20005;-90
2022/03/08 05:50:55;;;;;;;10.68;5.32;;;;;;;;;;6126077;23;20009;-90
2022/03/08 05:53:24;;;;;;;15.05;5.50;;;;;;;;;;6126502;23;20017;-91
2022/03/08 05:55:53;;;;;;;11.30;6.20;;;;;;;;;;6126135;23;20006;-89
2022/03/08 05:58:20;;;;;;;14.27;7.60;;;;;;;;;;6103199;23;20005;-89
2022/03/08 06:00:46;;;;;;;20.50;8.75;;;;;;;;;;6126875;23;20414;-87
2022/03/08 06:03:19;;;;;;;33.67;12.73;;;;;;;;;;6126419;23;20401;-90
2022/03/08 06:05:46;;;;;;;32.95;13.85;;;;;;;;;;6126130;23;20017;-89
2022/03/08 06:08:15;;;;;;;30.58;14.02;;;;;;;;;;6124602;23;20093;-89
2022/03/08 06:10:42;;;;;;;33.33;12.73;;;;;;;;;;6125528;23;20009;-89
2022/03/08 06:13:08;;;;;;;33.13;12.82;;;;;;;;;;6126468;23;20018;-88
2022/03/08 06:15:35;;;;;;;32.55;13.15;;;;;;;;;;6125114;23;20006;-89
2022/03/08 06:18:01;;;;;;;28.85;11.45;;;;;;;;;;6125637;23;20025;-89
2022/03/08 06:20:27;;;;;;;29.95;11.70;;;;;;;;;;6080493;23;20339;-89
2022/03/08 06:22:54;;;;;;;27.15;9.80;;;;;;;;;;6038610;23;20150;-89
2022/03/08 06:25:21;;;;;;;29.20;10.68;;;;;;;;;;6038983;23;20036;-88
2022/03/08 06:27:47;;;;;;;23.55;9.80;;;;;;;;;;6039283;23;20031;-88
2022/03/08 06:30:13;;;;;;;22.73;10.55;;;;;;;;;;6038244;23;20309;-87
2022/03/08 06:32:39;;;;;;;42.58;15.32;;;;;;;;;;6040026;23;20087;-87
2022/03/08 06:35:06;;;;;;;35.10;14.93;;;;;;;;;;6038322;23;20067;-87
2022/03/08 06:37:32;;;;;;;34.88;14.02;;;;;;;;;;6038054;23;20063;-85
2022/03/08 06:39:59;;;;;;;27.70;13.13;;;;;;;;;;6037093;23;20008;-86
2022/03/08 06:42:25;;;;;;;38.10;16.95;;;;;;;;;;6039479;23;20446;-89
2022/03/08 06:44:52;;;;;;;33.65;16.77;;;;;;;;;;6013030;23;20007;-87
2022/03/08 06:47:18;;;;;;;33.83;16.15;;;;;;;;;;6036903;23;20007;-86
2022/03/08 06:49:44;;;;;;;37.25;14.93;;;;;;;;;;6038082;23;20011;-88
2022/03/08 06:52:10;;;;;;;23.65;10.98;;;;;;;;;;6038510;23;20018;-87
2022/03/08 06:54:37;;;;;;;21.02;11.25;;;;;;;;;;6037643;23;20010;-87
2022/03/08 06:57:04;;;;;;;20.40;10.95;;;;;;;;;;6039534;23;20010;-87
2022/03/08 06:59:30;;;;;;;19.15;9.93;;;;;;;;;;6014615;23;20019;-89
2022/03/08 07:01:57;;;;;;;20.23;10.27;;;;;;;;;;6036011;23;20088;-87
2022/03/08 07:04:23;;;;;;;19.95;10.27;;;;;;;;;;6037871;23;20011;-86
2022/03/08 07:06:50;;;;;;;25.27;11.15;;;;;;;;;;6039592;23;20028;-87
2022/03/08 07:09:16;;;;;;;21.08;12.13;;;;;;;;;;6039517;23;20007;-89
2022/03/08 07:11:43;;;;;;;25.02;13.35;;;;;;;;;;6037537;23;20050;-88
2022/03/08 07:14:15;;;;;;;26.35;14.10;;;;;;;;;;6037735;23;20372;-87
2022/03/08 07:16:41;;;;;;;22.70;13.45;;;;;;;;;;6039162;23;20007;-86
2022/03/08 07:19:08;;;;;;;28.13;12.57;;;;;;;;;;6038166;23;20007;-86
2022/03/08 07:21:34;;;;;;;23.45;11.32;;;;;;;;;;6037799;23;20008;-87
2022/03/08 07:24:00;;;;;;;21.60;11.38;;;;;;;;;;6038226;23;20008;-88
2022/03/08 07:26:26;;;;;;;19.17;10.80;;;;;;;;;;6037937;23;20008;-90
2022/03/08 07:28:53;;;;;;;24.10;11.02;;;;;;;;;;6037301;23;20004;-88
2022/03/08 07:31:19;;;;;;;22.83;12.40;;;;;;;;;;6038124;23;20098;-86
2022/03/08 07:33:45;;;;;;;23.80;12.10;;;;;;;;;;6037833;23;20167;-87
2022/03/08 07:36:12;;;;;;;27.48;13.27;;;;;;;;;;6039590;23;20007;-88
2022/03/08 07:38:38;;;;;;;20.05;10.98;;;;;;;;;;6037183;23;20151;-86
2022/03/08 07:41:05;;;;;;;25.92;12.73;;;;;;;;;;6039297;23;20006;-87
2022/03/08 07:43:32;;;;;;;20.20;12.38;;;;;;;;;;6037979;23;20003;-87
2022/03/08 07:45:58;;;;;;;21.73;12.48;;;;;;;;;;6039071;23;20007;-88
2022/03/08 07:48:25;;;;;;;22.23;10.95;;;;;;;;;;6037054;23;20035;-91
2022/03/08 07:50:51;;;;;;;24.05;12.07;;;;;;;;;;6039336;23;20006;-88
2022/03/08 07:53:17;;;;;;;19.17;11.32;;;;;;;;;;6037630;23;20015;-89
2022/03/08 07:55:43;;;;;;;22.70;11.50;;;;;;;;;;6037499;23;20007;-88
2022/03/08 07:58:12;;;;;;;23.58;10.70;;;;;;;;;;6038031;23;20087;-89
2022/03/08 08:00:40;;;;;;;20.30;10.48;;;;;;;;;;6038021;23;20007;-90
2022/03/08 08:03:07;;;;;;;19.35;9.95;;;;;;;;;;6039955;23;20059;-86
2022/03/08 08:05:34;;;;;;;20.33;10.60;;;;;;;;;;6039594;23;20058;-87
2022/03/08 08:08:04;;;;;;;24.77;11.40;;;;;;;;;;6038934;23;20009;-89
2022/03/08 08:10:30;;;;;;;17.30;10.32;;;;;;;;;;6040026;23;20003;-88
2022/03/08 08:12:56;;;;;;;22.58;11.07;;;;;;;;;;6039875;23;20042;-89
2022/03/08 08:15:23;;;;;;;17.67;10.50;;;;;;;;;;6039834;23;20422;-88
2022/03/08 08:17:49;;;;;;;18.67;10.55;;;;;;;;;;6039287;23;20003;-90
2022/03/08 08:20:15;;;;;;;24.35;12.52;;;;;;;;;;6038925;23;20014;-87
2022/03/08 08:22:42;;;;;;;25.92;13.35;;;;;;;;;;6039534;23;20083;-87
2022/03/08 08:25:09;;;;;;;22.23;13.02;;;;;;;;;;6039666;23;20010;-89
2022/03/08 08:27:37;;;;;;;26.77;12.27;;;;;;;;;;6039542;23;20031;-89
2022/03/08 08:30:04;;;;;;;24.92;11.82;;;;;;;;;;6039980;23;20016;-89
2022/03/08 08:32:30;;;;;;;24.10;12.43;;;;;;;;;;6040764;23;20011;-88
2022/03/08 08:34:56;;;;;;;21.02;11.35;;;;;;;;;;6038973;23;20030;-89
2022/03/08 08:37:23;;;;;;;20.55;11.55;;;;;;;;;;6039843;23;20039;-88
2022/03/08 08:39:49;;;;;;;20.38;10.85;;;;;;;;;;6039053;23;20768;-90
2022/03/08 08:42:15;;;;;;;20.05;11.90;;;;;;;;;;6039318;23;20062;-87
2022/03/08 08:44:42;;;;;;;20.27;10.82;;;;;;;;;;6039246;23;20007;-89
2022/03/08 08:47:08;;;;;;;20.90;11.65;;;;;;;;;;6038880;23;20388;-90
2022/03/08 08:49:34;;;;;;;19.10;10.30;;;;;;;;;;6040839;23;20004;-89
2022/03/08 08:52:08;;;;;;;17.27;10.13;;;;;;;;;;6039318;23;20046;-89
2022/03/08 08:54:34;;;;;;;21.45;10.80;;;;;;;;;;6039141;23;20007;-89
2022/03/08 08:57:01;;;;;;;26.05;13.02;;;;;;;;;;6040774;23;19999;-88
2022/03/08 08:59:27;;;;;;;23.85;13.55;;;;;;;;;;6038898;23;20010;-89
2022/03/08 09:01:53;;;;;;;24.23;13.70;;;;;;;;;;6041425;23;20090;-91
2022/03/08 09:04:19;;;;;;;24.30;13.68;;;;;;;;;;6039828;23;20423;-90
2022/03/08 09:06:46;;;;;;;23.92;14.55;;;;;;;;;;6038722;23;20064;-89
2022/03/08 09:09:12;;;;;;;26.02;13.98;;;;;;;;;;6039216;23;20034;-88
2022/03/08 09:11:38;;;;;;;26.40;14.48;;;;;;;;;;6038362;23;20339;-90
2022/03/08 09:14:05;;;;;;;23.33;13.57;;;;;;;;;;6039712;23;20007;-91
2022/03/08 09:16:31;;;;;;;23.70;13.60;;;;;;;;;;6039509;23;20642;-90
2022/03/08 09:18:58;;;;;;;16.58;11.25;;;;;;;;;;6039190;23;20007;-90
2022/03/08 09:21:24;;;;;;;17.50;11.05;;;;;;;;;;6038234;23;20011;-90
2022/03/08 09:23:50;;;;;;;25.73;12.35;;;;;;;;;;6038540;23;20011;-90
2022/03/08 09:26:16;;;;;;;25.52;13.23;;;;;;;;;;6038005;23;20382;-86
2022/03/08 09:28:43;;;;;;;25.35;15.00;;;;;;;;;;6039251;23;20026;-88
2022/03/08 09:31:09;;;;;;;28.42;15.48;;;;;;;;;;6039234;23;20090;-92
2022/03/08 09:33:35;;;;;;;30.35;14.60;;;;;;;;;;6039360;23;20003;-88
2022/03/08 09:36:02;;;;;;;19.00;10.38;;;;;;;;;;6016103;23;20062;-89
2022/03/08 09:38:28;;;;;;;20.50;11.52;;;;;;;;;;6039803;23;20063;-90
2022/03/08 09:40:54;;;;;;;26.40;10.65;;;;;;;;;;6015538;23;20031;-89
2022/03/08 09:43:21;;;;;;;21.67;9.80;;;;;;;;;;6014322;23;20490;-91
2022/03/08 09:45:47;;;;;;;25.27;14.38;;;;;;;;;;6015960;23;20011;-89
2022/03/08 09:48:14;;;;;;;20.65;12.07;;;;;;;;;;6015211;23;20027;-90
2022/03/08 09:50:40;;;;;;;24.70;12.52;;;;;;;;;;6015322;23;20003;-90
2022/03/08 09:53:10;;;;;;;25.95;13.13;;;;;;;;;;6014622;23;20018;-92
2022/03/08 09:55:46;;;;;;;22.40;13.15;;;;;;;;;;6040146;23;20000;-90
2022/03/08 09:58:13;;;;;;;18.63;11.27;;;;;;;;;;6015362;23;20017;-92
2022/03/08 10:00:39;;;;;;;19.75;11.00;;;;;;;;;;6014769;23;20007;-91
2022/03/08 10:03:12;;;;;;;18.48;10.57;;;;;;;;;;6014857;23;20004;-91
2022/03/08 10:05:43;;;;;;;19.60;9.25;;;;;;;;;;6015307;23;20415;-91
2022/03/08 10:08:19;;;;;;;16.02;9.93;;;;;;;;;;6015705;23;20031;-91
2022/03/08 10:10:46;;;;;;;25.98;12.88;;;;;;;;;;6015380;23;20086;-93
2022/03/08 10:13:13;;;;;;;18.60;9.60;;;;;;;;;;6014289;23;20435;-92
2022/03/08 10:15:40;;;;;;;14.63;9.18;;;;;;;;;;6015147;23;20008;-89
2022/03/08 10:18:07;;;;;;;23.75;9.55;;;;;;;;;;6015329;23;20010;-90
2022/03/08 10:20:34;;;;;;;18.45;10.85;;;;;;;;;;6014889;23;20013;-90
2022/03/08 10:23:00;;;;;;;20.75;11.15;;;;;;;;;;6015240;23;20368;-89
2022/03/08 10:25:30;;;;;;;20.25;10.25;;;;;;;;;;6011704;23;20335;-88
2022/03/08 10:28:10;;;;;;;22.80;12.38;;;;;;;;;;6014356;23;20063;-89
2022/03/08 10:30:43;;;;;;;22.30;12.85;;;;;;;;;;6013656;23;20110;-89
2022/03/08 10:33:09;;;;;;;26.73;14.25;;;;;;;;;;6013179;23;20015;-91
2022/03/08 10:35:39;;;;;;;25.35;14.70;;;;;;;;;;6039926;23;20019;-88
2022/03/08 10:38:11;;;;;;;29.15;16.75;;;;;;;;;;6014630;23;20019;-90
2022/03/08 10:40:39;;;;;;;29.73;16.65;;;;;;;;;;6012864;23;20022;-88
2022/03/08 10:43:06;;;;;;;22.25;14.18;;;;;;;;;;6014760;23;20007;-90
2022/03/08 10:45:34;;;;;;;27.02;16.60;;;;;;;;;;6015396;23;20008;-91
2022/03/08 10:48:01;;;;;;;20.02;10.60;;;;;;;;;;6015443;23;20368;-88
2022/03/08 10:50:29;;;;;;;21.15;11.80;;;;;;;;;;6014334;23;20007;-90
2022/03/08 10:52:56;;;;;;;19.13;11.80;;;;;;;;;;6014332;23;20027;-88
2022/03/08 10:55:27;;;;;;;23.65;12.35;;;;;;;;;;6015164;23;19999;-89
2022/03/08 10:57:57;;;;;;;20.10;11.18;;;;;;;;;;6013994;23;20011;-90
2022/03/08 11:00:33;;;;;;;19.63;10.77;;;;;;;;;;6014550;23;20003;-90
2022/03/08 11:03:01;;;;;;;16.20;9.13;;;;;;;;;;6014557;23;20079;-88
2022/03/08 11:05:28;;;;;;;22.70;10.20;;;;;;;;;;6014575;23;20007;-88
2022/03/08 11:07:57;;;;;;;15.05;8.60;;;;;;;;;;6015130;23;20050;-89
2022/03/08 11:10:24;;;;;;;14.40;8.93;;;;;;;;;;6039609;23;19999;-90
2022/03/08 11:12:52;;;;;;;17.45;9.02;;;;;;;;;;6014538;23;20022;-90
2022/03/08 11:15:43;;;;;;;15.60;9.82;;;;;;;;;;6039702;23;20003;-88
2022/03/08 11:18:11;;;;;;;18.33;9.57;;;;;;;;;;6014762;23;20011;-89
2022/03/08 11:20:39;;;;;;;20.50;9.68;;;;;;;;;;6014186;23;20014;-89
2022/03/08 11:23:05;;;;;;;28.70;11.35;;;;;;;;;;6014435;23;20011;-88
2022/03/08 11:25:33;;;;;;;22.42;12.35;;;;;;;;;;6014277;23;20087;-89
2022/03/08 11:28:01;;;;;;;20.92;11.80;;;;;;;;;;6013548;23;20406;-86
2022/03/08 11:30:30;;;;;;;18.90;11.05;;;;;;;;;;6038899;23;20046;-89
2022/03/08 11:33:03;;;;;;;19.75;10.38;;;;;;;;;;6013576;23;20015;-90
2022/03/08 11:35:35;;;;;;;20.13;11.75;;;;;;;;;;6013649;23;20030;-89
2022/03/08 11:38:05;;;;;;;25.73;12.30;;;;;;;;;;6039080;23;20159;-90
2022/03/08 11:40:35;;;;;;;21.17;11.80;;;;;;;;;;6039305;23;19999;-90
2022/03/08 11:43:04;;;;;;;21.50;12.30;;;;;;;;;;6039207;23;20017;-89
2022/03/08 11:45:34;;;;;;;21.52;12.82;;;;;;;;;;6014078;23;20003;-90
2022/03/08 11:48:02;;;;;;;21.02;11.50;;;;;;;;;;6013936;23;20014;-90
2022/03/08 11:50:31;;;;;;;22.67;12.60;;;;;;;;;;6013923;23;20029;-90
2022/03/08 11:53:25;;;;;;;20.88;12.23;;;;;;;;;;6014521;23;20019;-90
2022/03/08 11:55:55;;;;;;;24.73;13.65;;;;;;;;;;6014791;23;20082;-93
2022/03/08 11:58:22;;;;;;;27.13;14.18;;;;;;;;;;6014113;23;20078;-90
2022/03/08 12:00:53;;;;;;;22.70;13.90;;;;;;;;;;6014572;23;20010;-91
2022/03/08 12:03:23;;;;;;;26.20;13.77;;;;;;;;;;6014072;23;20030;-90
2022/03/08 12:05:57;;;;;;;26.27;14.85;;;;;;;;;;6014845;23;20086;-90
2022/03/08 12:08:32;;;;;;;31.08;14.80;;;;;;;;;;6015193;23;20038;-92
2022/03/08 12:11:01;;;;;;;27.27;15.90;;;;;;;;;;6014647;23;20331;-92
2022/03/08 12:13:32;;;;;;;24.35;15.27;;;;;;;;;;6014364;23;20012;-90
2022/03/08 12:16:10;;;;;;;31.75;16.50;;;;;;;;;;6015080;23;20071;-88
2022/03/08 12:18:38;;;;;;;26.83;15.55;;;;;;;;;;6013985;23;20014;-89
2022/03/08 12:21:16;;;;;;;28.98;16.70;;;;;;;;;;6013694;23;20014;-89
2022/03/08 12:23:57;;;;;;;29.70;16.95;;;;;;;;;;6015402;23;20038;-89
2022/03/08 12:26:37;;;;;;;30.90;17.55;;;;;;;;;;6014743;23;20007;-90
2022/03/08 12:29:04;;;;;;;33.88;18.35;;;;;;;;;;6013789;23;20030;-89
2022/03/08 12:31:31;;;;;;;31.90;17.95;;;;;;;;;;6012584;23;20084;-90
2022/03/08 12:34:08;;;;;;;36.60;19.88;;;;;;;;;;6012458;23;20023;-90
2022/03/08 12:36:34;;;;;;;42.97;22.33;;;;;;;;;;6011946;23;20062;-89
2022/03/08 12:39:01;;;;;;;35.92;21.15;;;;;;;;;;6036591;23;20003;-92
2022/03/08 12:41:28;;;;;;;39.60;22.70;;;;;;;;;;6013897;23;20003;-90
2022/03/08 12:44:04;;;;;;;44.67;23.90;;;;;;;;;;6013404;23;20347;-89
2022/03/08 12:46:30;;;;;;;41.45;23.30;;;;;;;;;;6013197;23;20438;-88
2022/03/08 12:48:57;;;;;;;45.90;23.33;;;;;;;;;;6015261;23;20049;-89
2022/03/08 12:51:24;;;;;;;40.88;22.50;;;;;;;;;;6015147;23;20067;-88
2022/03/08 12:53:57;;;;;;;43.60;23.40;;;;;;;;;;6015645;23;20078;-89
2022/03/08 12:56:25;;;;;;;36.80;21.80;;;;;;;;;;6014702;23;20003;-88
2022/03/08 12:58:51;;;;;;;40.20;20.58;;;;;;;;;;6012573;23;20435;-89
2022/03/08 13:01:18;;;;;;;44.63;24.45;;;;;;;;;;6015187;23;20003;-87
2022/03/08 13:03:45;;;;;;;45.22;23.40;;;;;;;;;;6038834;23;20036;-87
2022/03/08 13:06:12;;;;;;;47.30;26.08;;;;;;;;;;6040545;23;19999;-88
2022/03/08 13:08:42;;;;;;;53.65;25.50;;;;;;;;;;6014280;23;20015;-89
2022/03/08 13:11:10;;;;;;;55.83;26.65;;;;;;;;;;6040006;23;20044;-87
2022/03/08 13:13:40;;;;;;;55.78;27.33;;;;;;;;;;6015355;23;20014;-90
2022/03/08 13:16:07;;;;;;;52.95;27.92;;;;;;;;;;6015310;23;20003;-88
2022/03/08 13:18:37;;;;;;;59.38;30.38;;;;;;;;;;6015194;23;20007;-88
2022/03/08 13:21:04;;;;;;;53.00;29.05;;;;;;;;;;6015351;23;20457;-89
2022/03/08 13:23:35;;;;;;;63.47;31.05;;;;;;;;;;6015422;23;20007;-87
2022/03/08 13:26:05;;;;;;;64.65;32.80;;;;;;;;;;6015899;23;20000;-90
2022/03/08 13:28:39;;;;;;;65.15;34.03;;;;;;;;;;6014968;23;20003;-88
2022/03/08 13:31:12;;;;;;;64.10;36.17;;;;;;;;;;6015275;23;20007;-88
2022/03/08 13:33:39;;;;;;;70.32;39.28;;;;;;;;;;6015243;23;20022;-89
2022/03/08 13:36:05;;;;;;;80.15;43.05;;;;;;;;;;6015232;23;20015;-89
2022/03/08 13:38:36;;;;;;;80.05;42.03;;;;;;;;;;6015695;23;20015;-90
2022/03/08 13:41:06;;;;;;;78.30;43.28;;;;;;;;;;6015567;23;20014;-89
2022/03/08 13:43:35;;;;;;;80.95;44.83;;;;;;;;;;6015403;23;20518;-89
2022/03/08 13:46:03;;;;;;;88.78;46.28;;;;;;;;;;6015767;23;20011;-89
2022/03/08 13:48:30;;;;;;;81.10;45.15;;;;;;;;;;6040344;23;20074;-89
2022/03/08 13:51:01;;;;;;;90.97;47.83;;;;;;;;;;6015821;23;20008;-90
2022/03/08 13:53:27;;;;;;;82.35;44.58;;;;;;;;;;6015192;23;20032;-89
2022/03/08 13:55:57;;;;;;;76.60;43.75;;;;;;;;;;6016173;23;20011;-91
2022/03/08 13:58:25;;;;;;;85.55;47.00;;;;;;;;;;6015610;23;20003;-88
2022/03/08 14:00:51;;;;;;;84.15;47.42;;;;;;;;;;6015634;23;20007;-90
2022/03/08 14:03:18;;;;;;;93.63;49.90;;;;;;;;;;6015546;23;20039;-89
2022/03/08 14:05:50;;;;;;;94.93;52.70;;;;;;;;;;6040556;23;20007;-89
2022/03/08 14:08:28;;;;;;;93.28;51.78;;;;;;;;;;6015445;23;20011;-90
2022/03/08 14:10:58;;;;;;;108.18;55.85;;;;;;;;;;6015515;23;20419;-89
2022/03/08 14:13:25;;;;;;;97.18;53.70;;;;;;;;;;6015198;23;20067;-89
2022/03/08 14:16:02;;;;;;;99.57;54.80;;;;;;;;;;6015165;23;20007;-89
2022/03/08 14:18:29;;;;;;;100.10;55.03;;;;;;;;;;6014060;23;20007;-88
2022/03/08 14:20:56;;;;;;;95.68;52.35;;;;;;;;;;6014493;23;20078;-90
2022/03/08 14:23:23;;;;;;;99.43;54.75;;;;;;;;;;6015738;23;20013;-91
2022/03/08 14:26:02;;;;;;;99.05;50.70;;;;;;;;;;6015611;23;20003;-90
2022/03/08 14:28:45;;;;;;;98.35;50.80;;;;;;;;;;6014783;23;20008;-89
2022/03/08 14:31:21;;;;;;;95.50;49.50;;;;;;;;;;6014460;23;20010;-89
2022/03/08 14:33:56;;;;;;;96.28;50.85;;;;;;;;;;6015115;23;20030;-89
2022/03/08 14:36:33;;;;;;;100.20;51.03;;;;;;;;;;6014929;23;20011;-89
2022/03/08 14:39:00;;;;;;;95.43;50.10;;;;;;;;;;6014999;23;20014;-89
2022/03/08 14:41:27;;;;;;;103.32;50.47;;;;;;;;;;6015241;23;20008;-91
2022/03/08 14:43:54;;;;;;;103.72;53.25;;;;;;;;;;6014471;23;20408;-89
2022/03/08 14:46:20;;;;;;;103.72;53.03;;;;;;;;;;6014674;23;20017;-91